Time;durP1;ratioP1;P1;durP2;ratioP2;P2;SDS_P1;SDS_P2;PMS_P1;PMS_P2;Temp;Humidity;BMP_temperature;BMP_pressure;BME280_temperature;BME280_humidity;BME280_pressure;Samples;Min_cycle;Max_cycle;Signal;HPM_P1;HPM_P2
2022/06/05 00:00:15;;;;;;;8.48;4.07;;;18.20;70.40;;;;;;5050167;28;20124;-82
2022/06/05 00:03:01;;;;;;;5.60;3.65;;;18.10;70.60;;;;;;5050273;28;20111;-82
2022/06/05 00:05:43;;;;;;;6.05;3.78;;;18.00;71.50;;;;;;5049892;28;20030;-85
2022/06/05 00:08:20;;;;;;;10.52;3.92;;;18.00;71.50;;;;;;5048823;28;20037;-83
2022/06/05 00:10:55;;;;;;;5.85;3.78;;;17.90;71.70;;;;;;5050244;28;20272;-84
2022/06/05 00:13:40;;;;;;;7.00;3.75;;;17.90;72.30;;;;;;5050124;28;20037;-84
2022/06/05 00:16:08;;;;;;;5.93;4.05;;;17.90;72.60;;;;;;5050100;28;20382;-85
2022/06/05 00:18:35;;;;;;;;;;;17.80;73.20;;;;;;5051000;28;20036;-81
2022/06/05 00:21:01;;;;;;;8.85;4.50;;;17.80;74.00;;;;;;5050115;28;20302;-83
2022/06/05 00:23:31;;;;;;;6.95;4.30;;;17.80;74.10;;;;;;5050877;28;20101;-84
2022/06/05 00:26:12;;;;;;;7.80;4.28;;;17.70;74.20;;;;;;5049629;28;20025;-84
2022/06/05 00:29:02;;;;;;;7.22;4.18;;;17.70;75.30;;;;;;5049500;28;20036;-85
2022/06/05 00:31:55;;;;;;;7.55;4.50;;;17.70;74.80;;;;;;5049341;28;20482;-83
2022/06/05 00:34:21;;;;;;;8.15;3.80;;;17.70;75.50;;;;;;5050720;28;20175;-83
2022/06/05 00:36:57;;;;;;;7.75;4.70;;;17.70;75.80;;;;;;5050981;28;20506;-93
2022/06/05 00:39:45;;;;;;;8.48;4.55;;;17.60;76.30;;;;;;5055785;28;20033;-91
2022/06/05 00:42:19;;;;;;;7.20;4.43;;;17.60;76.60;;;;;;5053420;28;20056;-85
2022/06/05 00:44:49;;;;;;;7.07;4.40;;;17.60;77.20;;;;;;5053223;28;20057;-85
2022/06/05 00:47:20;;;;;;;8.70;4.38;;;17.60;77.70;;;;;;5053993;28;20545;-76
2022/06/05 00:49:53;;;;;;;6.88;4.00;;;17.60;77.40;;;;;;5052552;28;20350;-87
2022/06/05 00:52:21;;;;;;;7.93;4.47;;;17.60;78.30;;;;;;5054596;28;20032;-88
2022/06/05 00:54:47;;;;;;;8.25;4.28;;;17.50;78.50;;;;;;5054786;28;20033;-85
2022/06/05 00:57:14;;;;;;;6.40;4.25;;;17.50;78.70;;;;;;5054498;28;20410;-88
2022/06/05 00:59:42;;;;;;;9.23;4.82;;;17.50;78.80;;;;;;5054263;28;20166;-90
2022/06/05 01:02:09;;;;;;;11.15;5.15;;;17.50;79.30;;;;;;5054989;28;20127;-87
2022/06/05 01:04:37;;;;;;;6.70;4.15;;;17.40;79.80;;;;;;5053429;28;20370;-81
2022/06/05 01:07:03;;;;;;;7.28;4.43;;;17.40;79.90;;;;;;5054328;28;20486;-85
2022/06/05 01:09:29;;;;;;;6.65;4.75;;;17.40;80.70;;;;;;5054970;28;20021;-88
2022/06/05 01:12:03;;;;;;;10.52;5.22;;;17.40;80.40;;;;;;5054211;28;20021;-87
2022/06/05 01:14:56;;;;;;;6.38;4.68;;;17.40;81.20;;;;;;5053517;28;20059;-85
2022/06/05 01:18:00;;;;;;;8.63;5.10;;;17.30;81.40;;;;;;5053934;28;20036;-85
2022/06/05 01:20:56;;;;;;;7.88;5.18;;;17.20;82.10;;;;;;5053659;28;20119;-86
2022/06/05 01:23:44;;;;;;;8.38;5.10;;;17.20;82.40;;;;;;5052287;28;20036;-86
2022/06/05 01:26:27;;;;;;;8.85;4.63;;;17.20;82.60;;;;;;5053182;28;20055;-86
2022/06/05 01:29:18;;;;;;;7.13;4.80;;;17.20;82.90;;;;;;5052356;28;20040;-85
2022/06/05 01:31:48;;;;;;;6.75;4.75;;;17.10;83.00;;;;;;5053251;28;20059;-85
2022/06/05 01:34:41;;;;;;;6.93;4.60;;;17.10;83.50;;;;;;5052858;28;20033;-85
2022/06/05 01:37:13;;;;;;;9.57;5.05;;;17.10;83.80;;;;;;5051970;28;20043;-86
2022/06/05 01:39:51;;;;;;;7.65;4.95;;;17.20;84.40;;;;;;5053211;28;20031;-86
2022/06/05 01:42:28;;;;;;;8.00;4.78;;;17.10;85.20;;;;;;5051784;28;20378;-85
2022/06/05 01:45:06;;;;;;;9.43;5.18;;;17.00;85.60;;;;;;5052861;28;20063;-84
2022/06/05 01:47:36;;;;;;;9.05;5.40;;;16.90;86.40;;;;;;5052635;28;20102;-84
2022/06/05 01:50:11;;;;;;;5.88;5.03;;;16.90;86.80;;;;;;5051698;28;20039;-86
2022/06/05 01:52:47;;;;;;;9.45;5.45;;;17.00;87.00;;;;;;5053510;28;20033;-85
2022/06/05 01:55:18;;;;;;;7.43;5.07;;;16.90;87.40;;;;;;5053200;28;20483;-86
2022/06/05 01:57:44;;;;;;;10.55;4.78;;;16.90;87.30;;;;;;5053816;28;20036;-87
2022/06/05 02:00:15;;;;;;;8.50;5.65;;;17.00;87.20;;;;;;5052851;28;20039;-86
2022/06/05 02:02:58;;;;;;;9.02;5.57;;;17.00;86.90;;;;;;5052769;28;20098;-85
2022/06/05 02:05:31;;;;;;;9.55;5.85;;;17.00;87.70;;;;;;5051788;28;20040;-84
2022/06/05 02:08:03;;;;;;;10.85;5.68;;;16.80;88.80;;;;;;5052154;28;20091;-85
2022/06/05 02:10:35;;;;;;;9.93;5.47;;;16.80;89.10;;;;;;5051470;28;20422;-85
2022/06/05 02:13:01;;;;;;;8.05;4.90;;;16.70;89.40;;;;;;5052215;28;20029;-83
2022/06/05 02:15:29;;;;;;;11.32;5.30;;;16.60;89.50;;;;;;5052434;28;20039;-85
2022/06/05 02:17:59;;;;;;;8.95;5.90;;;16.60;89.20;;;;;;5052217;28;20035;-86
2022/06/05 02:20:26;;;;;;;10.45;5.70;;;16.60;89.80;;;;;;5050807;28;20029;-87
2022/06/05 02:22:52;;;;;;;10.82;5.93;;;16.60;90.10;;;;;;5050811;28;20086;-83
2022/06/05 02:25:21;;;;;;;8.80;5.13;;;16.60;90.10;;;;;;5050963;28;20029;-84
2022/06/05 02:27:47;;;;;;;8.98;5.53;;;16.60;90.20;;;;;;5052530;28;20025;-84
2022/06/05 02:30:15;;;;;;;8.02;5.13;;;16.50;90.50;;;;;;5052057;28;20029;-84
2022/06/05 02:32:54;;;;;;;7.20;5.00;;;16.60;90.50;;;;;;5050757;28;20044;-84
2022/06/05 02:35:51;;;;;;;12.00;6.18;;;16.50;91.00;;;;;;5051733;28;20534;-84
2022/06/05 02:38:31;;;;;;;8.75;5.45;;;16.60;90.60;;;;;;5052067;28;20120;-84
2022/06/05 02:41:13;;;;;;;8.20;5.93;;;16.60;90.50;;;;;;5051832;28;20485;-85
2022/06/05 02:47:21;;;;;;;9.45;5.85;;;16.60;90.60;;;;;;5052747;28;20104;-87
2022/06/05 02:49:55;;;;;;;12.30;5.68;;;16.60;90.90;;;;;;5051617;28;20083;-84
2022/06/05 02:52:22;;;;;;;11.27;5.78;;;16.60;90.70;;;;;;5051705;28;20049;-84
2022/06/05 02:54:58;;;;;;;8.27;5.47;;;16.50;90.80;;;;;;5052181;28;20354;-84
2022/06/05 02:57:24;;;;;;;12.02;5.82;;;16.50;90.80;;;;;;5051616;28;20329;-84
2022/06/05 02:59:50;;;;;;;8.15;5.60;;;16.50;91.00;;;;;;5049938;28;20121;-82
2022/06/05 03:05:00;;;;;;;13.27;6.43;;;16.40;90.90;;;;;;5051794;28;20120;-85
2022/06/05 03:07:26;;;;;;;7.78;5.40;;;16.40;91.00;;;;;;5051535;28;20113;-88
2022/06/05 03:09:51;;;;;;;12.52;5.78;;;16.40;91.10;;;;;;5051477;28;20029;-86
2022/06/05 03:12:17;;;;;;;7.20;5.00;;;16.40;91.10;;;;;;5051910;28;20039;-87
2022/06/05 03:14:43;;;;;;;10.25;5.55;;;16.40;91.10;;;;;;5050100;28;20042;-86
2022/06/05 03:17:09;;;;;;;9.10;5.68;;;16.30;91.20;;;;;;5050950;28;20037;-86
2022/06/05 03:19:35;;;;;;;9.40;6.07;;;16.30;91.20;;;;;;5052454;28;20117;-87
2022/06/05 03:22:01;;;;;;;8.80;5.60;;;16.30;91.10;;;;;;5053890;28;20040;-86
2022/06/05 03:24:26;;;;;;;9.27;5.22;;;16.30;91.20;;;;;;5054799;28;20060;-85
2022/06/05 03:26:52;;;;;;;11.15;5.95;;;16.30;91.30;;;;;;5053362;28;20033;-87
2022/06/05 03:29:18;;;;;;;9.98;5.20;;;16.30;91.30;;;;;;5055435;28;20119;-86
2022/06/05 03:31:43;;;;;;;10.10;5.38;;;16.30;91.20;;;;;;5054710;28;20033;-87
2022/06/05 03:34:09;;;;;;;10.05;4.78;;;16.30;91.40;;;;;;5058043;28;20033;-87
2022/06/05 03:36:35;;;;;;;7.53;4.65;;;16.30;91.30;;;;;;5061560;28;20036;-86
2022/06/05 03:39:00;;;;;;;9.15;5.18;;;16.30;91.30;;;;;;5060923;28;20493;-87
2022/06/05 03:41:26;;;;;;;7.55;4.80;;;16.30;91.30;;;;;;5059950;28;20136;-87
2022/06/05 03:43:52;;;;;;;9.32;5.05;;;16.30;91.40;;;;;;5061272;28;20071;-83
2022/06/05 03:46:17;;;;;;;13.18;5.90;;;16.20;91.50;;;;;;5061045;28;20041;-83
2022/06/05 03:48:44;;;;;;;7.68;5.25;;;16.20;91.40;;;;;;5061647;28;20029;-83
2022/06/05 03:51:16;;;;;;;6.97;4.80;;;16.20;91.80;;;;;;5061514;28;20033;-84
2022/06/05 03:53:42;;;;;;;7.25;4.85;;;16.20;91.70;;;;;;5062697;28;20037;-85
2022/06/05 03:56:12;;;;;;;6.53;4.78;;;16.20;91.50;;;;;;5062335;28;20055;-83
2022/06/05 03:58:38;;;;;;;7.93;5.22;;;16.30;91.70;;;;;;5063766;28;20041;-86
2022/06/05 04:01:08;;;;;;;7.80;4.65;;;16.20;91.40;;;;;;5052174;28;20127;-88
2022/06/05 04:03:34;;;;;;;8.40;5.05;;;16.30;91.50;;;;;;5055588;28;20026;-87
2022/06/05 04:06:00;;;;;;;9.57;5.47;;;16.30;91.60;;;;;;5052136;28;20029;-87
2022/06/05 04:08:26;;;;;;;6.32;5.07;;;16.20;91.50;;;;;;5052517;28;20112;-87
2022/06/05 04:10:51;;;;;;;8.15;5.10;;;16.20;91.40;;;;;;5052561;28;20104;-86
2022/06/05 04:13:17;;;;;;;10.05;5.10;;;16.20;91.50;;;;;;5053855;28;20052;-87
2022/06/05 04:15:43;;;;;;;5.60;4.25;;;16.20;91.40;;;;;;5056955;28;20033;-87
2022/06/05 04:18:08;;;;;;;9.02;5.20;;;16.30;91.40;;;;;;5056312;28;20033;-83
2022/06/05 04:20:39;;;;;;;5.93;3.97;;;16.30;91.40;;;;;;5055970;28;20029;-85
2022/06/05 04:23:08;;;;;;;5.65;3.95;;;16.30;91.30;;;;;;5055463;28;20483;-84
2022/06/05 04:25:34;;;;;;;5.45;4.35;;;16.30;91.30;;;;;;5056317;28;20505;-87
2022/06/05 04:27:59;;;;;;;6.63;4.72;;;16.30;91.30;;;;;;5054961;28;20075;-86
2022/06/05 04:30:26;;;;;;;5.65;3.97;;;16.30;91.30;;;;;;5055459;28;20024;-86
2022/06/05 04:32:52;;;;;;;7.45;4.70;;;16.30;91.20;;;;;;5053729;28;20039;-84
2022/06/05 04:35:18;;;;;;;7.88;4.63;;;16.40;91.30;;;;;;5055162;28;20029;-85
2022/06/05 04:37:44;;;;;;;6.60;4.50;;;16.40;91.30;;;;;;5055383;28;20025;-84
2022/06/05 04:40:10;;;;;;;7.75;4.10;;;16.40;91.20;;;;;;5054543;28;20390;-85
2022/06/05 04:42:36;;;;;;;7.38;4.53;;;16.40;91.30;;;;;;5053982;28;20045;-85
2022/06/05 04:45:03;;;;;;;10.15;4.55;;;16.50;91.20;;;;;;5054406;28;20037;-85
2022/06/05 04:47:28;;;;;;;7.05;4.40;;;16.50;91.10;;;;;;5052799;28;20033;-86
2022/06/05 04:49:54;;;;;;;7.40;4.60;;;16.60;91.10;;;;;;5054620;28;20035;-86
2022/06/05 04:52:19;;;;;;;7.07;4.35;;;16.70;91.00;;;;;;5052603;28;20037;-84
2022/06/05 04:54:45;;;;;;;8.38;4.30;;;16.70;90.80;;;;;;5054571;28;20029;-85
2022/06/05 04:57:11;;;;;;;5.22;4.07;;;16.80;90.80;;;;;;5054219;28;20207;-87
2022/06/05 04:59:38;;;;;;;5.03;3.75;;;16.90;90.70;;;;;;5054576;28;20460;-84
2022/06/05 05:02:03;;;;;;;4.78;3.63;;;16.90;90.60;;;;;;5054839;28;20039;-85
2022/06/05 05:04:29;;;;;;;5.60;4.00;;;17.00;90.50;;;;;;5054397;28;20339;-85
2022/06/05 05:06:55;;;;;;;11.95;4.63;;;17.10;90.50;;;;;;5054690;28;20041;-84
2022/06/05 05:09:21;;;;;;;8.23;4.07;;;17.10;90.50;;;;;;5054378;28;20354;-83
2022/06/05 05:11:46;;;;;;;5.97;4.10;;;17.10;90.50;;;;;;5054229;28;20423;-84
2022/06/05 05:14:12;;;;;;;6.80;4.35;;;17.30;90.30;;;;;;5054017;28;20033;-85
2022/06/05 05:16:38;;;;;;;8.10;4.40;;;17.20;90.30;;;;;;5053496;28;20144;-85
2022/06/05 05:19:04;;;;;;;9.07;4.18;;;17.30;90.70;;;;;;5053340;28;20029;-84
2022/06/05 05:21:30;;;;;;;9.35;4.53;;;17.50;90.30;;;;;;5053592;28;20037;-84
2022/06/05 05:23:55;;;;;;;8.50;4.35;;;17.60;90.00;;;;;;5053198;28;20061;-83
2022/06/05 05:26:27;;;;;;;5.60;4.32;;;17.50;89.80;;;;;;5052889;28;20029;-85
2022/06/05 05:28:54;;;;;;;11.63;4.68;;;17.70;90.10;;;;;;5053012;28;20039;-84
2022/06/05 05:31:27;;;;;;;6.88;4.00;;;17.70;89.70;;;;;;5053107;28;20036;-81
2022/06/05 05:33:54;;;;;;;7.22;3.70;;;17.90;89.70;;;;;;5053566;28;20020;-83
2022/06/05 05:36:21;;;;;;;10.25;4.10;;;18.00;89.50;;;;;;5055729;28;20028;-84
2022/06/05 05:44:25;;;;;;;6.38;3.75;;;18.30;88.30;;;;;;5053318;28;20044;-84
2022/06/05 05:46:51;;;;;;;6.13;3.60;;;18.40;88.20;;;;;;5053714;28;20378;-83
2022/06/05 05:49:17;;;;;;;11.73;6.10;;;18.60;88.00;;;;;;5053373;28;20037;-83
2022/06/05 05:51:43;;;;;;;9.27;5.45;;;18.80;87.90;;;;;;5052577;28;20067;-86
2022/06/05 05:54:10;;;;;;;7.43;4.18;;;18.90;87.10;;;;;;5053365;28;20164;-86
2022/06/05 05:56:36;;;;;;;7.00;4.07;;;19.00;86.50;;;;;;5052748;28;20037;-85
2022/06/05 05:59:03;;;;;;;7.70;4.45;;;19.10;86.50;;;;;;5053192;28;20033;-86
2022/06/05 06:01:29;;;;;;;6.75;4.40;;;19.10;86.00;;;;;;5052889;28;20037;-85
2022/06/05 06:03:54;;;;;;;7.32;4.93;;;19.20;86.00;;;;;;5052779;28;20044;-86
2022/06/05 06:06:28;;;;;;;5.82;4.10;;;19.40;85.90;;;;;;5052269;28;20127;-83
2022/06/05 06:08:54;;;;;;;5.22;3.63;;;19.50;85.90;;;;;;5051400;28;20025;-86
2022/06/05 06:11:20;;;;;;;8.95;4.43;;;19.50;85.30;;;;;;5052590;28;20083;-87
2022/06/05 06:13:46;;;;;;;11.85;4.25;;;19.30;85.50;;;;;;5052410;28;20421;-91
2022/06/05 06:16:12;;;;;;;8.00;4.40;;;19.30;86.00;;;;;;5052250;28;20036;-86
2022/06/05 06:18:38;;;;;;;18.08;9.57;;;19.40;86.10;;;;;;5051513;28;20039;-82
2022/06/05 06:21:07;;;;;;;15.68;10.00;;;19.40;86.00;;;;;;5051879;28;20036;-78
2022/06/05 06:23:33;;;;;;;7.55;4.57;;;19.50;86.30;;;;;;5052665;28;20039;-85
2022/06/05 06:26:02;;;;;;;6.40;3.97;;;19.60;86.20;;;;;;5052258;28;20039;-85
2022/06/05 06:28:32;;;;;;;6.43;4.00;;;19.70;86.10;;;;;;5051464;28;20033;-83
2022/06/05 06:30:57;;;;;;;5.90;3.97;;;19.80;86.20;;;;;;5052322;28;20460;-86
2022/06/05 06:33:23;;;;;;;8.25;4.15;;;19.80;86.10;;;;;;5053048;28;20306;-88
2022/06/05 06:35:49;;;;;;;5.20;4.07;;;19.80;86.10;;;;;;5051207;28;20032;-89
2022/06/05 06:38:14;;;;;;;10.15;4.82;;;19.90;86.20;;;;;;5053339;28;20017;-89
2022/06/05 06:40:40;;;;;;;6.55;4.13;;;19.90;86.00;;;;;;5052915;28;20037;-87
2022/06/05 06:43:06;;;;;;;6.55;4.65;;;19.90;86.10;;;;;;5052190;28;20045;-84
2022/06/05 06:45:32;;;;;;;11.25;4.03;;;20.10;85.90;;;;;;5052952;28;20108;-86
2022/06/05 06:47:59;;;;;;;11.82;4.57;;;20.10;86.00;;;;;;5052916;28;20044;-87
2022/06/05 06:50:25;;;;;;;7.93;4.70;;;20.30;85.70;;;;;;5052751;28;20055;-87
2022/06/05 06:52:51;;;;;;;8.05;4.47;;;20.30;85.10;;;;;;5055213;28;20049;-90
2022/06/05 06:55:17;;;;;;;7.25;4.10;;;20.30;86.00;;;;;;5055172;28;20037;-90
2022/06/05 06:57:45;;;;;;;8.43;4.28;;;20.40;85.50;;;;;;5055532;28;20355;-87
2022/06/05 07:00:15;;;;;;;5.32;4.38;;;20.50;85.30;;;;;;5052555;28;20049;-87
2022/06/05 07:02:41;;;;;;;9.82;4.68;;;20.60;85.00;;;;;;5053729;28;20040;-88
2022/06/05 07:05:07;;;;;;;5.15;3.72;;;20.70;84.70;;;;;;5051598;28;20029;-79
2022/06/05 07:07:32;;;;;;;6.25;4.28;;;20.70;84.60;;;;;;5051564;28;20032;-81
2022/06/05 07:09:58;;;;;;;9.05;4.40;;;20.80;84.80;;;;;;5051289;28;20050;-80
2022/06/05 07:12:24;;;;;;;8.07;3.58;;;20.90;84.60;;;;;;5052107;28;20096;-80
2022/06/05 07:14:49;;;;;;;10.65;4.57;;;21.00;84.50;;;;;;5051863;28;20370;-93
2022/06/05 07:17:15;;;;;;;8.00;3.90;;;21.10;84.10;;;;;;5051925;28;20064;-85
2022/06/05 07:19:41;;;;;;;6.25;3.92;;;21.10;83.90;;;;;;5053269;28;20424;-85
2022/06/05 07:22:06;;;;;;;6.05;3.95;;;21.20;84.00;;;;;;5052173;28;20017;-87
2022/06/05 07:24:32;;;;;;;6.57;4.45;;;21.30;84.20;;;;;;5052596;28;20025;-85
2022/06/05 07:26:58;;;;;;;11.23;5.43;;;21.20;84.30;;;;;;5052829;28;20040;-85
2022/06/05 07:29:25;;;;;;;6.35;4.00;;;21.40;83.30;;;;;;5050885;28;20105;-80
2022/06/05 07:31:51;;;;;;;8.90;4.73;;;21.50;83.50;;;;;;5050191;28;20116;-79
2022/06/05 07:34:16;;;;;;;6.82;4.03;;;21.60;83.30;;;;;;5051094;28;20116;-84
2022/06/05 07:36:42;;;;;;;8.30;4.20;;;21.70;83.30;;;;;;5052409;28;20025;-86
2022/06/05 07:39:08;;;;;;;4.25;3.72;;;21.80;83.10;;;;;;5051823;28;20101;-84
2022/06/05 07:41:36;;;;;;;8.02;4.60;;;22.00;82.70;;;;;;5051510;28;20076;-85
2022/06/05 07:44:03;;;;;;;7.30;4.40;;;22.10;82.50;;;;;;5051061;28;20037;-82
2022/06/05 07:46:31;;;;;;;8.27;4.05;;;22.30;81.70;;;;;;5052111;28;20032;-84
2022/06/05 07:48:57;;;;;;;7.97;3.53;;;22.50;81.30;;;;;;5055698;28;20171;-82
2022/06/05 07:54:30;;;;;;;8.32;3.95;;;22.90;80.70;;;;;;5055767;28;20043;-85
2022/06/05 07:57:00;;;;;;;7.10;3.90;;;23.20;80.00;;;;;;5054144;28;20120;-85
2022/06/05 07:59:28;;;;;;;5.70;3.80;;;23.40;79.80;;;;;;5055783;28;20079;-84
2022/06/05 08:01:54;;;;;;;6.07;3.70;;;23.80;78.80;;;;;;5054867;28;20040;-83
2022/06/05 08:04:19;;;;;;;4.47;3.25;;;24.10;78.40;;;;;;5055499;28;20037;-86
2022/06/05 08:06:45;;;;;;;6.65;4.05;;;24.20;77.10;;;;;;5055873;28;20507;-85
2022/06/05 08:09:11;;;;;;;10.30;3.88;;;24.00;77.00;;;;;;5055970;28;20029;-88
2022/06/05 08:11:37;;;;;;;8.07;3.65;;;24.30;77.20;;;;;;5053729;28;20025;-84
2022/06/05 08:14:03;;;;;;;9.77;4.22;;;24.80;76.30;;;;;;5055482;28;20541;-86
2022/06/05 08:16:29;;;;;;;6.28;3.35;;;25.40;73.90;;;;;;5055607;28;20045;-84
2022/06/05 08:18:55;;;;;;;10.48;4.25;;;25.60;73.30;;;;;;5055707;28;20347;-83
2022/06/05 08:21:24;;;;;;;6.47;3.30;;;26.00;71.80;;;;;;5055710;28;20154;-85
2022/06/05 08:23:50;;;;;;;8.73;4.60;;;25.90;72.40;;;;;;5054558;28;20116;-86
2022/06/05 08:26:15;;;;;;;8.23;4.25;;;26.10;71.20;;;;;;5055241;28;20112;-83
2022/06/05 08:28:41;;;;;;;6.88;3.58;;;26.20;70.80;;;;;;5055129;28;20075;-83
2022/06/05 08:31:07;;;;;;;7.50;3.60;;;26.00;71.20;;;;;;5055452;28;20025;-85
2022/06/05 08:33:34;;;;;;;7.22;3.35;;;26.40;70.90;;;;;;5057362;28;20118;-87
2022/06/05 08:36:02;;;;;;;5.45;3.42;;;26.70;69.60;;;;;;5057577;28;20053;-83
2022/06/05 08:41:30;;;;;;;4.13;3.30;;;26.50;69.50;;;;;;5055168;28;20048;-83
2022/06/05 08:43:58;;;;;;;5.65;3.30;;;26.30;70.00;;;;;;5054505;28;20044;-85
2022/06/05 08:46:51;;;;;;;4.95;3.30;;;26.20;69.20;;;;;;5054079;28;20040;-82
2022/06/05 08:49:22;;;;;;;4.32;3.38;;;26.20;69.20;;;;;;5053610;28;20569;-81
2022/06/05 08:52:13;;;;;;;6.95;3.40;;;26.20;69.10;;;;;;5053292;28;20064;-83
2022/06/05 08:55:01;;;;;;;5.47;3.45;;;26.00;69.10;;;;;;5054466;28;20025;-84
2022/06/05 08:57:39;;;;;;;4.53;3.53;;;25.70;69.10;;;;;;5054704;28;20037;-82
2022/06/05 09:00:23;;;;;;;5.55;3.20;;;26.00;69.10;;;;;;5053259;28;20025;-81
2022/06/05 09:03:28;;;;;;;5.18;3.70;;;26.30;68.60;;;;;;5053615;28;20040;-82
2022/06/05 09:06:01;;;;;;;4.10;3.17;;;26.50;68.30;;;;;;5052317;28;20036;-85
2022/06/05 09:08:30;;;;;;;7.78;3.97;;;26.60;68.10;;;;;;5053785;28;20482;-84
2022/06/05 09:11:17;;;;;;;15.13;10.30;;;27.00;67.00;;;;;;5053388;28;20037;-83
2022/06/05 09:14:02;;;;;;;8.55;3.13;;;27.30;66.40;;;;;;5052856;28;20037;-80
2022/06/05 09:16:30;;;;;;;5.03;3.20;;;27.40;66.30;;;;;;5052763;28;20045;-80
2022/06/05 09:18:58;;;;;;;5.68;3.00;;;27.40;65.10;;;;;;5051554;28;20508;-82
2022/06/05 09:22:03;;;;;;;4.90;3.35;;;27.30;64.30;;;;;;5053236;28;20485;-80
2022/06/05 09:24:51;;;;;;;4.28;3.20;;;27.40;64.50;;;;;;5052575;28;20048;-81
2022/06/05 09:27:51;;;;;;;5.82;3.33;;;27.30;64.60;;;;;;5051527;28;20444;-80
2022/06/05 09:30:20;;;;;;;5.65;3.20;;;27.30;64.60;;;;;;5052442;28;20466;-83
2022/06/05 09:33:02;;;;;;;6.22;3.58;;;27.00;65.00;;;;;;5052373;28;20021;-81
2022/06/05 09:36:00;;;;;;;6.82;3.03;;;26.90;64.90;;;;;;5051363;28;20223;-84
2022/06/05 09:38:49;;;;;;;3.92;3.25;;;26.60;65.30;;;;;;5052362;28;20048;-87
2022/06/05 09:41:28;;;;;;;5.18;3.13;;;26.70;65.40;;;;;;5041097;28;20057;-86
2022/06/05 09:44:12;;;;;;;7.25;3.03;;;26.60;65.50;;;;;;5052386;28;20028;-81
2022/06/05 09:46:44;;;;;;;9.38;3.22;;;26.70;65.80;;;;;;5052078;28;20094;-79
2022/06/05 09:49:34;;;;;;;4.70;2.95;;;26.80;64.80;;;;;;5051842;28;20061;-88
2022/06/05 09:52:17;;;;;;;7.15;3.10;;;26.80;64.60;;;;;;5052243;28;20017;-81
2022/06/05 09:54:49;;;;;;;8.55;3.30;;;26.60;65.90;;;;;;5051690;28;20074;-81
2022/06/05 10:00:38;;;;;;;5.50;3.60;;;26.50;65.50;;;;;;5052541;28;20489;-85
2022/06/05 10:03:09;;;;;;;4.95;2.75;;;26.50;65.50;;;;;;5051404;28;20110;-82
2022/06/05 10:05:40;;;;;;;5.07;3.40;;;26.50;65.80;;;;;;5050899;28;20367;-81
2022/06/05 10:08:22;;;;;;;4.18;2.80;;;26.50;65.50;;;;;;5052161;28;20102;-77
2022/06/05 10:10:50;;;;;;;11.48;3.85;;;26.40;65.50;;;;;;5051285;28;20032;-82
2022/06/05 10:13:22;;;;;;;6.97;3.20;;;26.10;66.40;;;;;;5051760;28;20035;-73
2022/06/05 10:16:10;;;;;;;7.72;3.63;;;26.00;67.00;;;;;;5050799;28;20356;-87
2022/06/05 10:18:50;;;;;;;7.43;3.03;;;26.20;66.40;;;;;;5052433;28;20048;-82
2022/06/05 10:21:21;;;;;;;5.07;2.90;;;26.10;65.90;;;;;;5051364;28;20033;-79
2022/06/05 10:24:24;;;;;;;6.45;3.00;;;26.20;66.60;;;;;;5051525;28;20033;-84
2022/06/05 10:26:53;;;;;;;3.60;2.85;;;26.40;66.20;;;;;;5051267;28;20033;-81
2022/06/05 10:29:22;;;;;;;3.92;2.83;;;26.50;65.80;;;;;;5051120;28;20037;-80
2022/06/05 10:32:13;;;;;;;9.93;2.83;;;26.50;65.10;;;;;;5069416;27;20385;-87
2022/06/05 10:34:42;;;;;;;7.82;3.20;;;26.20;65.10;;;;;;5048338;28;20029;-80
2022/06/05 10:37:40;;;;;;;8.18;4.05;;;26.20;65.50;;;;;;5048607;28;20029;-84
2022/06/05 10:40:29;;;;;;;4.55;3.13;;;26.20;65.30;;;;;;5048737;28;20037;-84
2022/06/05 10:42:59;;;;;;;5.32;3.38;;;26.60;65.40;;;;;;5049454;28;20014;-90
2022/06/05 10:45:41;;;;;;;5.25;3.40;;;26.70;65.30;;;;;;5049804;28;20463;-84
2022/06/05 10:48:40;;;;;;;8.05;3.47;;;26.70;64.40;;;;;;5048414;28;20044;-84
2022/06/05 10:51:39;;;;;;;4.50;3.15;;;26.70;65.40;;;;;;5047717;28;20136;-83
2022/06/05 10:54:29;;;;;;;9.30;3.17;;;26.70;64.80;;;;;;5047683;28;20324;-84
2022/06/05 10:57:25;;;;;;;5.03;3.40;;;26.60;64.70;;;;;;5047947;28;20044;-81
2022/06/05 11:00:02;;;;;;;9.38;3.40;;;26.80;64.60;;;;;;5051106;28;20079;-83
2022/06/05 11:02:43;;;;;;;3.03;2.75;;;26.70;64.20;;;;;;5047896;28;20033;-84
2022/06/05 11:05:46;;;;;;;11.85;3.35;;;26.70;64.60;;;;;;5046549;28;20071;-82
2022/06/05 11:08:36;;;;;;;11.18;3.65;;;26.80;64.60;;;;;;5047399;28;20037;-80
2022/06/05 11:14:20;;;;;;;6.40;3.33;;;26.80;64.00;;;;;;5045541;28;20045;-84
2022/06/05 11:16:55;;;;;;;8.18;2.88;;;26.60;63.70;;;;;;5026261;28;20033;-82
2022/06/05 11:19:33;;;;;;;5.53;3.33;;;26.60;64.30;;;;;;5027324;28;20033;-82
2022/06/05 11:22:01;;;;;;;;;;;26.60;65.00;;;;;;5026549;28;20044;-79
2022/06/05 11:24:34;;;;;;;7.43;3.35;;;26.70;64.40;;;;;;5027558;28;20061;-80
2022/06/05 11:27:14;;;;;;;5.72;3.10;;;26.70;64.40;;;;;;5026921;28;20360;-81
2022/06/05 11:30:25;;;;;;;6.63;4.60;;;26.70;64.80;;;;;;5025294;28;20032;-80
2022/06/05 11:33:12;;;;;;;6.82;3.58;;;26.70;64.10;;;;;;5017077;28;20056;-81
2022/06/05 11:36:00;;;;;;;5.43;2.70;;;26.70;63.90;;;;;;5020282;28;20376;-82
2022/06/05 11:38:50;;;;;;;7.15;3.30;;;26.60;63.20;;;;;;5025134;28;20526;-81
2022/06/05 11:42:01;;;;;;;7.03;2.60;;;26.70;63.50;;;;;;5023408;28;20418;-80
2022/06/05 11:44:48;;;;;;;12.50;7.57;;;26.70;63.40;;;;;;5011172;28;20044;-80
2022/06/05 11:47:50;;;;;;;6.25;2.72;;;26.80;63.60;;;;;;5013532;28;20514;-80
2022/06/05 11:50:33;;;;;;;5.07;2.90;;;26.70;63.90;;;;;;5011486;28;20046;-82
2022/06/05 11:53:09;;;;;;;3.88;2.80;;;26.80;64.10;;;;;;5012298;28;20046;-81
2022/06/05 11:55:45;;;;;;;6.13;3.10;;;26.80;63.10;;;;;;5012233;28;20117;-82
2022/06/05 11:58:23;;;;;;;5.82;3.15;;;26.90;62.90;;;;;;5013512;28;20480;-80
2022/06/05 12:01:01;;;;;;;4.50;2.60;;;26.80;62.90;;;;;;5012148;28;20040;-81
2022/06/05 12:03:36;;;;;;;;;;;26.90;63.10;;;;;;5014204;28;20041;-79
2022/06/05 12:06:34;;;;;;;4.47;3.17;;;27.00;63.00;;;;;;5012410;28;20000;-79
2022/06/05 12:09:05;;;;;;;11.65;4.03;;;27.10;62.90;;;;;;5013393;28;20038;-83
2022/06/05 12:11:47;;;;;;;4.60;3.00;;;27.00;63.10;;;;;;5013108;28;20069;-82
2022/06/05 12:14:21;;;;;;;4.80;2.95;;;27.00;62.70;;;;;;5013458;28;20412;-81
2022/06/05 12:17:12;;;;;;;6.55;2.67;;;27.10;63.20;;;;;;5012958;28;20641;-81
2022/06/05 12:19:50;;;;;;;5.70;2.90;;;27.20;62.80;;;;;;5012765;28;20037;-79
2022/06/05 12:22:32;;;;;;;5.65;3.25;;;27.20;62.20;;;;;;5011809;28;20033;-82
2022/06/05 12:25:12;;;;;;;8.70;3.30;;;27.00;62.40;;;;;;5012594;28;20361;-79
2022/06/05 12:28:06;;;;;;;4.97;3.35;;;27.00;62.60;;;;;;5012915;28;20101;-80
2022/06/05 12:30:55;;;;;;;5.68;2.65;;;26.80;63.10;;;;;;4996040;28;20046;-81
2022/06/05 12:33:49;;;;;;;4.35;3.05;;;26.90;63.00;;;;;;5011626;28;20048;-80
2022/06/05 12:36:40;;;;;;;4.82;2.97;;;26.70;63.20;;;;;;5012764;28;20034;-82
2022/06/05 12:39:26;;;;;;;3.70;3.20;;;26.80;63.30;;;;;;5012478;28;20109;-83
2022/06/05 12:42:26;;;;;;;3.80;2.95;;;26.70;63.00;;;;;;5012823;28;20108;-81
2022/06/05 12:45:14;;;;;;;5.53;3.53;;;26.70;63.90;;;;;;5011302;28;20107;-82
2022/06/05 12:48:04;;;;;;;4.50;2.92;;;26.70;63.50;;;;;;5012501;28;20109;-81
2022/06/05 12:50:45;;;;;;;4.95;2.83;;;26.70;63.50;;;;;;5012237;28;20424;-79
2022/06/05 12:53:17;;;;;;;4.72;3.15;;;26.70;63.40;;;;;;5011670;28;20034;-80
2022/06/05 12:55:49;;;;;;;5.60;3.15;;;26.80;63.80;;;;;;5013157;28;20057;-81
2022/06/05 12:58:18;;;;;;;4.75;2.90;;;26.80;63.40;;;;;;5012041;28;20129;-80
2022/06/05 13:00:58;;;;;;;10.93;4.72;;;26.80;63.10;;;;;;5011455;28;20546;-80
2022/06/05 13:03:45;;;;;;;8.38;4.82;;;26.80;63.20;;;;;;5011868;28;20097;-81
2022/06/05 13:06:13;;;;;;;4.60;2.92;;;26.80;63.50;;;;;;5012038;28;20057;-81
2022/06/05 13:09:17;;;;;;;3.65;3.25;;;26.80;63.00;;;;;;5011778;28;20121;-78
2022/06/05 13:12:15;;;;;;;3.00;2.60;;;26.80;63.50;;;;;;5011990;28;20044;-81
2022/06/05 13:14:41;;;;;;;6.45;3.70;;;26.80;63.10;;;;;;5011552;28;20357;-80
2022/06/05 13:17:39;;;;;;;4.93;2.97;;;26.80;62.90;;;;;;5011848;28;20088;-80
2022/06/05 13:20:29;;;;;;;3.85;2.60;;;26.70;63.30;;;;;;5007411;28;20135;-80
2022/06/05 13:23:00;;;;;;;7.97;3.13;;;26.70;63.00;;;;;;5011834;28;20041;-79
2022/06/05 13:25:41;;;;;;;5.57;2.95;;;26.70;63.30;;;;;;5011696;28;20026;-82
2022/06/05 13:28:09;;;;;;;5.03;2.92;;;26.80;62.80;;;;;;5011880;28;20025;-80
2022/06/05 13:30:56;;;;;;;5.63;3.22;;;26.80;62.50;;;;;;5011883;28;20042;-81
2022/06/05 13:33:45;;;;;;;3.75;3.13;;;26.80;62.00;;;;;;5011901;28;20045;-82
2022/06/05 13:36:29;;;;;;;4.53;2.67;;;26.80;62.20;;;;;;5011312;28;20087;-81
2022/06/05 13:39:01;;;;;;;4.43;2.90;;;26.60;62.80;;;;;;5011841;28;20065;-80
2022/06/05 13:41:40;;;;;;;4.57;2.92;;;26.60;62.40;;;;;;5011581;28;20097;-79
2022/06/05 13:44:28;;;;;;;3.60;2.67;;;26.70;62.50;;;;;;5011229;28;20041;-80